^^
MeteoGriva-Weather Station Historical Data
 
Daily Summary for January 15, 2021 Units:  Metric    English   Both
Daily Weekly Monthly Yearly Custom
  Current: High: Low: Average:
Temperature: 0.6 °C 4.6 °C -2.1 °C 1 °C
Dew Point: -6.8 °C -4.3 °C -9.2 °C -7.2 °C
Humidity: 57.6% 74.1% 42.8% 55%
Wind Speed: 3.1km/h 17.9km/h 0km/h 6.6km/h
Wind Gust: 9.3km/h 38.9km/h - -
WindNorth - - SSW
Pressure: 1017.3 hPa 1018.6 hPa 1013.9 hPa -
Precipitation: 0.0 mm      
Historical Graphs
 
 
Tabular Data for January 15, 2021
Time Temperature Dew Point Pressure Wind Wind Speed Wind Gust Humidity Rainfall Rate (Hourly) solar
00:04 -0.3 °C -4.3 °C 1014.2 hPa North 7.8 km/h 18.3 km/h 74.1% 0.0 mm 0 W/m2
00:09 -0.2 °C -4.5 °C 1014.2 hPa North 8.8 km/h 16.9 km/h 72.4% 0.0 mm 0 W/m2
00:14 -0.1 °C -5.1 °C 1014.2 hPa NNW 8 km/h 16.9 km/h 68.8% 0.0 mm 0 W/m2
00:19 0.1 °C -5.2 °C 1014.6 hPa North 9.3 km/h 18 km/h 67.8% 0.0 mm 0 W/m2
00:24 0.1 °C -5.3 °C 1014.2 hPa North 8.6 km/h 18 km/h 66.7% 0.0 mm 0 W/m2
00:29 0.1 °C -5.3 °C 1014.2 hPa NNW 6.7 km/h 15.4 km/h 67% 0.0 mm 0 W/m2
00:34 0.2 °C -5.4 °C 1014.2 hPa North 10.4 km/h 28.8 km/h 65.9% 0.0 mm 0 W/m2
00:39 0.2 °C -5.5 °C 1014.2 hPa North 16.8 km/h 28.8 km/h 65.6% 0.0 mm 0 W/m2
00:44 0.2 °C -5.3 °C 1013.9 hPa North 13.8 km/h 27.4 km/h 66.3% 0.0 mm 0 W/m2
00:49 0.2 °C -5.5 °C 1013.9 hPa North 17.1 km/h 38.9 km/h 65.4% 3.6 mm 0 W/m2
00:54 0.2 °C -5.7 °C 1013.9 hPa NNW 17.9 km/h 36 km/h 64.5% 0.0 mm 0 W/m2
00:59 0.2 °C -5.8 °C 1013.9 hPa North 17.6 km/h 34.6 km/h 64% 0.0 mm 0 W/m2
01:04 0.2 °C -5.9 °C 1013.9 hPa North 13.9 km/h 36 km/h 63.2% 0.0 mm 0 W/m2
01:09 0.2 °C -5.8 °C 1013.9 hPa North 15.8 km/h 32.3 km/h 63.8% 0.0 mm 0 W/m2
01:14 0.2 °C -5.8 °C 1013.9 hPa NNW 17.1 km/h 32.8 km/h 64.1% 0.0 mm 0 W/m2
01:19 0.1 °C -5.8 °C 1014.2 hPa North 15.7 km/h 33.5 km/h 64.6% 0.0 mm 0 W/m2
01:24 0.1 °C -5.7 °C 1014.2 hPa North 14.9 km/h 28.8 km/h 65% 0.0 mm 0 W/m2
01:29 0 °C -5.9 °C 1014.6 hPa North 10.3 km/h 27 km/h 64.6% 0.0 mm 0 W/m2
01:34 0.1 °C -6.4 °C 1014.6 hPa NNE 6 km/h 15.4 km/h 61.2% 0.0 mm 0 W/m2
01:39 0.2 °C -6.3 °C 1014.6 hPa NNE 6.4 km/h 10.5 km/h 61.7% 0.0 mm 0 W/m2
01:44 0.2 °C -6.2 °C 1014.6 hPa North 4.5 km/h 10.5 km/h 62.3% 0.0 mm 0 W/m2
01:49 0.2 °C -6.5 °C 1015.2 hPa North 6 km/h 10.8 km/h 60.3% 0.0 mm 0 W/m2
01:54 0.2 °C -6.3 °C 1015.2 hPa NNW 8.7 km/h 22.7 km/h 61.5% 0.0 mm 0 W/m2
01:59 0.3 °C -6.3 °C 1015.2 hPa NNW 8.3 km/h 21.2 km/h 61.2% 0.0 mm 0 W/m2
02:04 0.3 °C -6.5 °C 1015.2 hPa NNW 12 km/h 26.7 km/h 60% 0.0 mm 0 W/m2
02:09 0.4 °C -6.8 °C 1014.9 hPa North 13.9 km/h 26.2 km/h 58.3% 0.0 mm 0 W/m2
02:14 0.4 °C -6.8 °C 1015.2 hPa NNW 11.1 km/h 23.8 km/h 58.5% 0.0 mm 0 W/m2
02:19 0.4 °C -6.9 °C 1015.2 hPa North 8.7 km/h 19.2 km/h 57.8% 0.0 mm 0 W/m2
02:24 0.4 °C -7.1 °C 1014.9 hPa North 10.2 km/h 19.8 km/h 57% 0.0 mm 0 W/m2
02:29 0.4 °C -7.3 °C 1014.9 hPa North 10.4 km/h 19.8 km/h 56% 0.0 mm 0 W/m2
02:34 0.5 °C -7.6 °C 1014.9 hPa North 5.7 km/h 20.1 km/h 54.5% 0.0 mm 0 W/m2
02:39 0.5 °C -7.6 °C 1015.2 hPa North 9.5 km/h 20.1 km/h 54.6% 0.0 mm 0 W/m2
02:44 0.5 °C -7.5 °C 1015.2 hPa North 5.2 km/h 16.3 km/h 55.2% 0.0 mm 0 W/m2
02:49 0.4 °C -7.4 °C 1015.2 hPa NNW 9.4 km/h 15.8 km/h 55.7% 0.0 mm 0 W/m2
02:54 0.3 °C -7.5 °C 1015.6 hPa North 6.2 km/h 15.8 km/h 55.7% 0.0 mm 0 W/m2
02:59 0.3 °C -7.7 °C 1015.6 hPa North 7.4 km/h 13.4 km/h 54.9% 0.0 mm 0 W/m2
03:04 0.2 °C -7.4 °C 1015.6 hPa North 9.7 km/h 18.7 km/h 56.5% 0.0 mm 0 W/m2
03:09 0.1 °C -7.3 °C 1015.6 hPa NNW 6.3 km/h 16.9 km/h 57.6% 0.0 mm 0 W/m2
03:14 0 °C -7.6 °C 1015.6 hPa North 10.4 km/h 20.1 km/h 56.4% 0.0 mm 0 W/m2
03:19 0 °C -8.1 °C 1015.6 hPa North 9.7 km/h 17.7 km/h 54.3% 0.0 mm 0 W/m2
03:24 0 °C -7.8 °C 1015.6 hPa NNE 5.5 km/h 15.4 km/h 55.3% 0.0 mm 0 W/m2
03:29 0 °C -7.9 °C 1015.6 hPa North 3.8 km/h 10.8 km/h 55% 0.0 mm 0 W/m2
03:34 -0.1 °C -7.9 °C 1015.6 hPa North 5.2 km/h 9 km/h 55.6% 0.0 mm 0 W/m2
03:39 -0.3 °C -7.4 °C 1015.6 hPa NE 3.1 km/h 7.2 km/h 58.5% 0.0 mm 0 W/m2
03:44 -0.6 °C -7.4 °C 1015.9 hPa NE 4 km/h 9.7 km/h 60% 0.0 mm 0 W/m2
03:49 -0.8 °C -7.5 °C 1015.9 hPa North 5.6 km/h 14.8 km/h 60.3% 0.0 mm 0 W/m2
03:54 -0.8 °C -7.6 °C 1015.9 hPa NNW 10.3 km/h 19.2 km/h 60.1% 0.0 mm 0 W/m2
03:59 -0.7 °C -7.8 °C 1015.9 hPa North 11.5 km/h 21.6 km/h 58.2% 0.0 mm 0 W/m2
04:04 -0.6 °C -7.9 °C 1015.9 hPa North 8.4 km/h 17.2 km/h 57.7% 0.0 mm 0 W/m2
04:09 -0.7 °C -7.5 °C 1015.9 hPa NNW 9.3 km/h 16.3 km/h 59.7% 0.0 mm 0 W/m2
04:14 -0.8 °C -7.8 °C 1015.9 hPa North 4.5 km/h 14.3 km/h 59.2% 0.0 mm 0 W/m2
04:19 -0.8 °C -8.7 °C 1015.9 hPa NNW 9 km/h 14.3 km/h 55% 0.0 mm 0 W/m2
04:24 -0.6 °C -8.8 °C 1016.3 hPa North 5.6 km/h 20.1 km/h 53.8% 0.0 mm 0 W/m2
04:29 -0.5 °C -8.8 °C 1015.9 hPa North 9.4 km/h 20.1 km/h 53.2% 0.0 mm 0 W/m2
04:34 -0.4 °C -8.8 °C 1016.3 hPa North 7.6 km/h 14 km/h 53% 0.0 mm 0 W/m2
04:39 -0.4 °C -8.8 °C 1016.3 hPa North 9.8 km/h 21.2 km/h 52.8% 0.0 mm 0 W/m2
04:44 -0.4 °C -8.8 °C 1016.3 hPa North 8.3 km/h 16.9 km/h 53% 0.0 mm 0 W/m2
04:49 -0.4 °C -8.6 °C 1016.3 hPa NNW 13.2 km/h 32 km/h 54% 0.0 mm 0 W/m2
04:59 -0.5 °C -8.7 °C 1016.3 hPa North 6.1 km/h 15.4 km/h 54% 0.0 mm 0 W/m2
05:04 -0.5 °C -8.7 °C 1016.3 hPa North 5.2 km/h 13.7 km/h 54% 0.0 mm 0 W/m2
05:09 -0.5 °C -8.7 °C 1016.3 hPa North 8.4 km/h 21.2 km/h 54% 0.0 mm 0 W/m2
05:14 -0.5 °C -8.5 °C 1016.3 hPa North 5.1 km/h 13.7 km/h 54.6% 0.0 mm 0 W/m2
05:19 -0.7 °C -8.5 °C 1016.3 hPa North 5.2 km/h 10.8 km/h 55% 0.0 mm 0 W/m2
05:24 -0.8 °C -8.5 °C 1016.3 hPa North 6.6 km/h 11.6 km/h 55.8% 0.0 mm 0 W/m2
05:29 -0.8 °C -8.5 °C 1016.3 hPa NNW 3.3 km/h 10.8 km/h 55.9% 0.0 mm 0 W/m2
05:34 -0.9 °C -8.5 °C 1015.9 hPa East 2.6 km/h 6.1 km/h 56.4% 0.0 mm 0 W/m2
05:39 -1 °C -8.3 °C 1016.3 hPa Calm   6.1 km/h 57.7% 0.0 mm 0 W/m2
05:44 -1.2 °C -7.7 °C 1016.3 hPa SW 0.3 km/h 3.2 km/h 61.3% 0.0 mm 0 W/m2
05:49 -1.4 °C -7.7 °C 1016.6 hPa SW 1.8 km/h 5.5 km/h 62.4% 0.0 mm 0 W/m2
05:54 -1.6 °C -8.7 °C 1016.6 hPa SW 2.2 km/h 5.5 km/h 58.2% 0.0 mm 0 W/m2
05:59 -1.4 °C -9.2 °C 1016.6 hPa SSW 0.5 km/h 4 km/h 55.6% 0.0 mm 0 W/m2
06:04 -1.3 °C -8.9 °C 1016.6 hPa NNW 4.1 km/h 9.3 km/h 56% 0.0 mm 0 W/m2
06:09 -1.2 °C -8.4 °C 1016.6 hPa NNW 5.3 km/h 10.1 km/h 58.2% 0.0 mm 0 W/m2
06:14 -1.3 °C -8.4 °C 1016.6 hPa NW 2.9 km/h 9.3 km/h 58.6% 0.0 mm 0 W/m2
06:19 -1.4 °C -8.5 °C 1016.6 hPa NW 2.6 km/h 5.5 km/h 58.3% 0.0 mm 0 W/m2
06:24 -1.4 °C -8.4 °C 1016.6 hPa North 3.2 km/h 7.9 km/h 58.9% 0.0 mm 0 W/m2
06:29 -1.4 °C -8.4 °C 1016.6 hPa NNW 4.4 km/h 8.2 km/h 58.8% 0.0 mm 0 W/m2
06:34 -1.5 °C -8.2 °C 1016.9 hPa NW 5.1 km/h 10.8 km/h 60% 0.0 mm 0 W/m2
06:39 -1.5 °C -8.1 °C 1016.9 hPa North 3.5 km/h 10.5 km/h 60.4% 0.0 mm 0 W/m2
06:44 -1.5 °C -8.4 °C 1016.9 hPa North 2.2 km/h 6.1 km/h 59.4% 0.0 mm 0 W/m2
06:49 -1.5 °C -8.6 °C 1016.9 hPa NNW 4.4 km/h 10.1 km/h 58.6% 0.0 mm 0 W/m2
06:54 -1.3 °C -8.7 °C 1016.9 hPa NNW 5.5 km/h 13.7 km/h 57.2% 0.0 mm 0 W/m2
06:59 -1.3 °C -8.5 °C 1016.9 hPa NNW 4.9 km/h 11.1 km/h 58.1% 0.0 mm 0 W/m2
07:04 -1.4 °C -8.3 °C 1016.9 hPa West 1.9 km/h 8.7 km/h 59.4% 0.0 mm 0 W/m2
07:09 -1.7 °C -7.9 °C 1017.3 hPa SE 2.2 km/h 5.8 km/h 62.3% 0.0 mm 0 W/m2
07:14 -2 °C -7.9 °C 1017.3 hPa South 0.5 km/h 5 km/h 64.2% 0.0 mm 0 W/m2
07:19 -2.1 °C -8.9 °C 1017.6 hPa WNW 2.8 km/h 6.9 km/h 59.8% 0.0 mm 0 W/m2
07:24 -1.9 °C -8.9 °C 1017.3 hPa WNW 1.9 km/h 6.1 km/h 58.8% 0.0 mm 0 W/m2
07:29 -1.6 °C -8.9 °C 1017.3 hPa SSE 0.9 km/h 7.2 km/h 57.6% 0.0 mm 0 W/m2
07:34 -1.5 °C -8.4 °C 1017.6 hPa SE 1.9 km/h 7.2 km/h 59.2% 0.0 mm 0 W/m2
07:39 -1.6 °C -8.2 °C 1018.0 hPa NNW 4.2 km/h 8.7 km/h 60.8% 0.0 mm 0 W/m2
07:44 -1.9 °C -8.3 °C 1018.0 hPa North 2.9 km/h 5.8 km/h 61.4% 0.0 mm 0 W/m2
07:49 -2 °C -8.7 °C 1018.0 hPa NNW 3.9 km/h 11.9 km/h 59.6% 0.0 mm 3 W/m2
07:54 -1.8 °C -8.5 °C 1018.0 hPa NW 4.4 km/h 11.9 km/h 60% 0.0 mm 4 W/m2
07:59 -1.7 °C -8.5 °C 1018.0 hPa Calm   7.2 km/h 59.6% 0.0 mm 7 W/m2
08:04 -1.6 °C -8.6 °C 1018.0 hPa WNW 1.5 km/h 4.7 km/h 59% 0.0 mm 10 W/m2
08:09 -1.4 °C -8.5 °C 1018.0 hPa NW 2.7 km/h 5.5 km/h 58.4% 0.0 mm 14 W/m2
08:14 -1.1 °C -8.3 °C 1017.6 hPa NW 2.2 km/h 5.5 km/h 58.4% 0.0 mm 18 W/m2
08:19 -0.9 °C -8.1 °C 1017.6 hPa North 0.1 km/h 4.7 km/h 57.8% 0.0 mm 42 W/m2
08:24 -0.5 °C -8 °C 1018.0 hPa SW 1.7 km/h 5.8 km/h 57% 0.0 mm 30 W/m2
08:29 -0.3 °C -8.2 °C 1018.0 hPa South 0.5 km/h 5.8 km/h 55.2% 0.0 mm 37 W/m2
08:34 0.1 °C -8.7 °C 1018.0 hPa East 1.7 km/h 4.3 km/h 51.3% 0.0 mm 45 W/m2
08:39 0.7 °C -8.2 °C 1018.3 hPa NNE 2.6 km/h 9.7 km/h 51.4% 0.0 mm 53 W/m2
08:44 0.9 °C -7.9 °C 1018.3 hPa North 3.4 km/h 9.7 km/h 51.7% 0.0 mm 61 W/m2
08:49 0.8 °C -8 °C 1018.3 hPa NE 1.2 km/h 9 km/h 51.6% 0.0 mm 69 W/m2
08:54 1.4 °C -8.1 °C 1018.3 hPa NNE 2.5 km/h 6.1 km/h 49.2% 0.0 mm 77 W/m2
08:59 1.7 °C -8.5 °C 1018.3 hPa NNE 5.9 km/h 10.1 km/h 46.4% 0.0 mm 86 W/m2
09:04 1.7 °C -8.7 °C 1018.3 hPa NNE 5.9 km/h 10.8 km/h 46% 0.0 mm 94 W/m2
09:09 1.7 °C -8.2 °C 1018.3 hPa NNE 3 km/h 9.3 km/h 48% 0.0 mm 103 W/m2
09:14 1.8 °C -8.2 °C 1018.6 hPa NE 4.6 km/h 7.9 km/h 47.6% 0.0 mm 112 W/m2
09:24 1.7 °C -8.2 °C 1018.6 hPa NNE 6.7 km/h 11.6 km/h 47.8% 0.0 mm 130 W/m2
09:29 1.7 °C -8 °C 1018.6 hPa North 7.4 km/h 16.9 km/h 48.4% 0.0 mm 139 W/m2
09:34 1.6 °C -7.8 °C 1018.6 hPa North 5.6 km/h 16.9 km/h 49.4% 0.0 mm 148 W/m2
09:39 1.7 °C -7.7 °C 1018.6 hPa North 8.5 km/h 16.3 km/h 49.2% 0.0 mm 156 W/m2
09:44 1.8 °C -7.7 °C 1018.6 hPa NNE 5.9 km/h 16.3 km/h 49.2% 0.0 mm 165 W/m2
09:49 2 °C -7.7 °C 1018.6 hPa NNE 5.1 km/h 9.3 km/h 48.8% 0.0 mm 174 W/m2
09:54 2.1 °C -7.5 °C 1018.6 hPa North 8.5 km/h 20.9 km/h 49% 0.0 mm 182 W/m2
09:59 2.1 °C -7.6 °C 1018.6 hPa North 10.9 km/h 18.7 km/h 48.6% 0.0 mm 191 W/m2
10:04 2.1 °C -7.5 °C 1018.6 hPa North 9.6 km/h 22.4 km/h 48.8% 0.0 mm 199 W/m2
10:09 2.1 °C -7.5 °C 1018.6 hPa North 12.6 km/h 20.1 km/h 48.9% 0.0 mm 208 W/m2
10:14 2.2 °C -7.4 °C 1018.6 hPa North 9.8 km/h 20.1 km/h 48.9% 0.0 mm 215 W/m2
10:19 2.4 °C -7 °C 1018.6 hPa North 10.3 km/h 20.1 km/h 49.6% 0.0 mm 222 W/m2
10:24 2.7 °C -7 °C 1018.6 hPa North 11.5 km/h 18.7 km/h 48.8% 0.0 mm 229 W/m2
10:29 2.6 °C -7 °C 1018.6 hPa North 8.3 km/h 19.5 km/h 48.8% 0.0 mm 235 W/m2
10:34 2.7 °C -7.1 °C 1018.6 hPa North 12.9 km/h 20.1 km/h 48.4% 0.0 mm 240 W/m2
10:39 2.6 °C -7 °C 1018.6 hPa North 9.3 km/h 20.1 km/h 48.9% 0.0 mm 240 W/m2
10:44 2.7 °C -7.2 °C 1018.6 hPa North 15.1 km/h 24.1 km/h 48.2% 0.0 mm 240 W/m2
10:49 2.7 °C -7 °C 1018.6 hPa North 16.5 km/h 25.6 km/h 48.8% 0.0 mm 235 W/m2
10:54 2.6 °C -6.9 °C 1018.6 hPa North 13.6 km/h 25.6 km/h 49.3% 0.0 mm 223 W/m2
10:59 2.6 °C -7 °C 1018.6 hPa North 11 km/h 21.9 km/h 49% 0.0 mm 210 W/m2
11:04 2.8 °C -6.8 °C 1018.6 hPa NNE 11.9 km/h 19.5 km/h 49% 0.0 mm 213 W/m2
11:09 2.9 °C -7.1 °C 1018.3 hPa North 12.2 km/h 22.4 km/h 47.7% 0.0 mm 239 W/m2
11:14 2.8 °C -6.9 °C 1018.3 hPa NNW 13.4 km/h 23.8 km/h 48.5% 0.0 mm 262 W/m2
11:19 2.8 °C -7.1 °C 1018.3 hPa North 10.9 km/h 22.7 km/h 48.1% 0.0 mm 282 W/m2
11:24 2.8 °C -7.1 °C 1018.3 hPa North 9.8 km/h 18.3 km/h 47.8% 0.0 mm 294 W/m2
11:29 3.1 °C -7 °C 1018.3 hPa North 7.6 km/h 19.8 km/h 47.6% 0.0 mm 302 W/m2
11:34 3.2 °C -7.2 °C 1018.3 hPa NNE 10.6 km/h 24.1 km/h 46.4% 0.0 mm 308 W/m2
11:39 3.3 °C -7.2 °C 1018.0 hPa North 10.6 km/h 23.3 km/h 46% 0.0 mm 312 W/m2
11:49 3.3 °C -7 °C 1018.0 hPa North 10.5 km/h 20.9 km/h 46.4% 0.0 mm 318 W/m2
11:54 3.5 °C -7 °C 1018.0 hPa NNE 6 km/h 20.9 km/h 46% 0.0 mm 320 W/m2
11:59 3.8 °C -7 °C 1018.0 hPa NNE 7.7 km/h 15.1 km/h 44.8% 0.0 mm 324 W/m2
12:04 3.7 °C -7.1 °C 1018.0 hPa NNE 6.3 km/h 15.4 km/h 45% 0.0 mm 326 W/m2
12:09 3.7 °C -7.3 °C 1018.0 hPa NNE 5.1 km/h 11.9 km/h 44.4% 0.0 mm 329 W/m2
12:14 3.8 °C -7.4 °C 1018.0 hPa NNE 6.8 km/h 13 km/h 43.8% 0.0 mm 329 W/m2
12:19 3.7 °C -7.4 °C 1018.0 hPa NE 6.8 km/h 12.2 km/h 43.8% 0.0 mm 331 W/m2
12:24 3.8 °C -7.5 °C 1018.0 hPa NE 5.9 km/h 10.8 km/h 43.4% 0.0 mm 331 W/m2
12:29 4 °C -7.5 °C 1017.6 hPa North 7.2 km/h 12.2 km/h 42.8% 0.0 mm 331 W/m2
12:34 3.8 °C -7.3 °C 1017.6 hPa NNE 6.1 km/h 13.7 km/h 43.8% 0.0 mm 332 W/m2
12:39 3.8 °C -7.1 °C 1017.6 hPa SSE 4.6 km/h 10.5 km/h 44.6% 0.0 mm 332 W/m2
12:44 4.1 °C -7.1 °C 1017.6 hPa ENE 4.8 km/h 10.5 km/h 43.8% 0.0 mm 330 W/m2
12:49 4.2 °C -7 °C 1017.6 hPa ESE 3.9 km/h 11.6 km/h 43.6% 0.0 mm 330 W/m2
12:54 4.3 °C -7.1 °C 1017.3 hPa East 2.8 km/h 13 km/h 43.2% 0.0 mm 325 W/m2
12:59 4.6 °C -6.7 °C 1017.3 hPa SSE 7.2 km/h 13 km/h 44% 0.0 mm 319 W/m2
13:04 4.2 °C -6.5 °C 1017.3 hPa South 6.2 km/h 16.9 km/h 45.6% 0.0 mm 305 W/m2
13:09 3.8 °C -5.6 °C 1017.3 hPa South 10.9 km/h 19.8 km/h 50.1% 0.0 mm 284 W/m2
13:14 3.7 °C -5.8 °C 1017.3 hPa SSE 10.3 km/h 18.3 km/h 49.9% 0.0 mm 268 W/m2
13:19 3.6 °C -5.9 °C 1017.3 hPa South 8.9 km/h 18.3 km/h 49.8% 0.0 mm 238 W/m2
13:24 3.6 °C -6 °C 1017.3 hPa South 8.3 km/h 17.7 km/h 49.4% 0.0 mm 249 W/m2
13:29 3.7 °C -6 °C 1017.3 hPa SSE 4.6 km/h 15.4 km/h 49% 0.0 mm 269 W/m2
13:34 3.9 °C -6.3 °C 1017.3 hPa ESE 4.1 km/h 10.8 km/h 47.2% 0.0 mm 292 W/m2
13:39 4.1 °C -6.6 °C 1017.3 hPa NNE 6.6 km/h 13 km/h 45.4% 0.0 mm 303 W/m2
13:44 4 °C -6.8 °C 1017.3 hPa North 7.7 km/h 15.4 km/h 45.2% 0.0 mm 299 W/m2
13:49 3.7 °C -6.8 °C 1017.3 hPa NNE 9 km/h 20.9 km/h 45.8% 0.0 mm 308 W/m2
13:52 3.7 °C -7.1 °C 1016.9 hPa North 8.6 km/h 15.1 km/h 45% 0.0 mm 311 W/m2
13:59 3.7 °C -7.1 °C 1016.9 hPa North 9.9 km/h 17.7 km/h 44.9% 0.0 mm 307 W/m2
14:04 3.7 °C -7.3 °C 1016.9 hPa NNE 5.8 km/h 18.7 km/h 44.2% 0.0 mm 289 W/m2
14:09 3.6 °C -6.9 °C 1016.9 hPa NNE 5.8 km/h 18.7 km/h 45.8% 0.0 mm 129 W/m2
14:14 3.3 °C -6.9 °C 1016.9 hPa NNW 7.9 km/h 15.4 km/h 47.2% 0.0 mm 262 W/m2
14:19 3.2 °C -7 °C 1016.9 hPa North 8.4 km/h 15.4 km/h 47% 0.0 mm 268 W/m2
14:24 3.3 °C -6.9 °C 1016.9 hPa North 8.6 km/h 16.3 km/h 46.8% 0.0 mm 264 W/m2
14:29 3.5 °C -7 °C 1016.9 hPa NNE 6.1 km/h 13.7 km/h 46% 0.0 mm 255 W/m2
14:34 3.6 °C -7 °C 1016.9 hPa North 8.9 km/h 16.3 km/h 45.6% 0.0 mm 253 W/m2
14:39 3.5 °C -7.3 °C 1016.9 hPa North 8.9 km/h 16.9 km/h 45% 0.0 mm 246 W/m2
14:44 3.5 °C -7.2 °C 1016.9 hPa North 9.1 km/h 18.3 km/h 45.2% 0.0 mm 237 W/m2
14:49 3.5 °C -7.3 °C 1016.9 hPa North 6.8 km/h 16.3 km/h 45% 0.0 mm 232 W/m2
14:54 3.5 °C -7.2 °C 1016.9 hPa North 11.1 km/h 17.7 km/h 45.6% 0.0 mm 223 W/m2
14:59 3.3 °C -7 °C 1016.9 hPa North 9.9 km/h 17.7 km/h 46.6% 0.0 mm 216 W/m2
15:04 3.3 °C -7.1 °C 1016.9 hPa North 6.8 km/h 14.3 km/h 46.4% 0.0 mm 206 W/m2
15:09 3.3 °C -7 °C 1016.9 hPa North 9.8 km/h 18.7 km/h 46.6% 0.0 mm 200 W/m2
15:14 3.2 °C -6.9 °C 1016.9 hPa North 9.1 km/h 16.3 km/h 47.2% 0.0 mm 192 W/m2
15:19 3.2 °C -7 °C 1016.9 hPa North 9.2 km/h 15.8 km/h 47% 0.0 mm 183 W/m2
15:24 3 °C -7 °C 1016.9 hPa NNE 8.7 km/h 18 km/h 47.6% 0.0 mm 172 W/m2
15:29 3 °C -6.9 °C 1016.9 hPa North 9.8 km/h 19.8 km/h 48% 0.0 mm 162 W/m2
15:34 2.9 °C -6.8 °C 1016.9 hPa North 9.8 km/h 19.8 km/h 48.8% 0.0 mm 152 W/m2
15:39 2.9 °C -6.7 °C 1016.9 hPa North 9 km/h 18.7 km/h 49% 0.0 mm 139 W/m2
15:44 2.7 °C -6.7 °C 1016.6 hPa North 10.8 km/h 18.7 km/h 50% 0.0 mm 124 W/m2
15:49 2.6 °C -6.5 °C 1016.9 hPa North 6.3 km/h 15.1 km/h 51% 0.0 mm 109 W/m2
15:54 2.5 °C -6.6 °C 1016.9 hPa NNE 8.6 km/h 16.3 km/h 51% 0.0 mm 98 W/m2
15:59 2.5 °C -6.5 °C 1016.9 hPa North 8.9 km/h 14.3 km/h 51.4% 0.0 mm 77 W/m2
16:04 2.4 °C -6.4 °C 1016.9 hPa North 7 km/h 16.3 km/h 51.9% 0.0 mm 87 W/m2
16:14 1.9 °C -6.5 °C 1016.9 hPa North 9.9 km/h 19.8 km/h 53.6% 0.0 mm 34 W/m2
16:19 1.7 °C -6.7 °C 1016.9 hPa NNW 10.2 km/h 18.3 km/h 53.6% 0.0 mm 33 W/m2
16:24 1.5 °C -6.8 °C 1016.9 hPa North 8.6 km/h 16.9 km/h 54% 0.0 mm 32 W/m2
16:29 1.3 °C -6.9 °C 1016.9 hPa NNW 9.3 km/h 17.2 km/h 54.2% 0.0 mm 29 W/m2
16:34 1.3 °C -6.8 °C 1016.9 hPa North 6.1 km/h 15.8 km/h 54.8% 0.0 mm 27 W/m2
16:39 1.2 °C -6.8 °C 1016.9 hPa North 6.9 km/h 15.8 km/h 55% 0.0 mm 25 W/m2
16:44 1.1 °C -6.7 °C 1016.9 hPa North 6.1 km/h 15.8 km/h 55.8% 0.0 mm 22 W/m2
16:49 1.1 °C -6.5 °C 1016.9 hPa NNW 5.8 km/h 14.8 km/h 56.6% 0.0 mm 20 W/m2
16:54 1 °C -6.5 °C 1016.9 hPa NNW 5.3 km/h 10.8 km/h 57% 0.0 mm 18 W/m2
16:59 0.9 °C -6.6 °C 1017.3 hPa NNE 2.9 km/h 9.7 km/h 57.2% 0.0 mm 15 W/m2
17:09 0.8 °C -6.5 °C 1016.9 hPa NNW 2.9 km/h 7.6 km/h 58% 0.0 mm 10 W/m2
17:14 0.7 °C -6.5 °C 1017.3 hPa NNE 2.3 km/h 5.5 km/h 58.4% 0.0 mm 8 W/m2
17:19 0.6 °C -6.5 °C 1017.3 hPa North 3.8 km/h 7.9 km/h 59% 0.0 mm 6 W/m2
17:24 0.6 °C -6.6 °C 1017.3 hPa NW 2.7 km/h 9.3 km/h 58.4% 0.0 mm 4 W/m2
17:29 0.5 °C -6.6 °C 1017.3 hPa North 3.1 km/h 9.3 km/h 58.8% 0.0 mm 3 W/m2
17:34 0.5 °C -6.5 °C 1017.3 hPa NW 2.8 km/h 6.1 km/h 59.2% 0.0 mm 2 W/m2
17:39 0.4 °C -6.5 °C 1017.3 hPa NNW 3.2 km/h 6.1 km/h 59.6% 0.0 mm 0 W/m2
17:44 0.3 °C -6.4 °C 1017.3 hPa NW 1.2 km/h 5.8 km/h 60.8% 0.0 mm 0 W/m2
17:54 0 °C -6.5 °C 1017.3 hPa NNW 2 km/h 5.5 km/h 61.6% 0.0 mm 0 W/m2
17:59 -0.2 °C -6.4 °C 1017.6 hPa NW 1.5 km/h 5.5 km/h 62.8% 0.0 mm 0 W/m2
18:04 -0.2 °C -6.5 °C 1017.6 hPa NW 2.1 km/h 6.4 km/h 62.4% 0.0 mm 0 W/m2
18:09 -0.2 °C -6.4 °C 1017.3 hPa NW 1 km/h 5 km/h 62.8% 0.0 mm 0 W/m2
18:14 -0.2 °C -6.6 °C 1017.3 hPa NNW 2.6 km/h 6.9 km/h 61.8% 0.0 mm 0 W/m2
18:19 -0.1 °C -6.7 °C 1017.6 hPa NW 1.1 km/h 5.5 km/h 61% 0.0 mm 0 W/m2
18:24 -0.2 °C -6.7 °C 1017.6 hPa NW 2.2 km/h 6.9 km/h 61.6% 0.0 mm 0 W/m2
18:29 -0.2 °C -6.6 °C 1017.6 hPa West 1 km/h 6.4 km/h 62.2% 0.0 mm 0 W/m2
18:34 -0.3 °C -6.8 °C 1017.6 hPa NW 2 km/h 6.4 km/h 61.7% 0.0 mm 0 W/m2
18:39 -0.2 °C -7 °C 1017.6 hPa NNW 2.7 km/h 5.8 km/h 59.9% 0.0 mm 0 W/m2
18:44 -0.1 °C -6.9 °C 1017.6 hPa NW 3.3 km/h 5.5 km/h 60% 0.0 mm 0 W/m2
18:49 0 °C -6.6 °C 1017.6 hPa NNW 2.2 km/h 6.1 km/h 60.8% 0.0 mm 0 W/m2
18:54 0 °C -6.7 °C 1017.6 hPa NNW 2.1 km/h 7.9 km/h 60.8% 0.0 mm 0 W/m2
19:09 -0.1 °C -6.7 °C 1017.6 hPa NNW 3.1 km/h 7.9 km/h 61% 0.0 mm 0 W/m2
19:14 0 °C -6.9 °C 1017.6 hPa North 3.2 km/h 7.9 km/h 59.2% 0.0 mm 0 W/m2
19:19 0.1 °C -6.8 °C 1017.3 hPa North 1.9 km/h 7.2 km/h 59.6% 0.0 mm 0 W/m2
19:24 0.1 °C -6.8 °C 1017.3 hPa NNW 2.5 km/h 10.1 km/h 59.4% 0.0 mm 0 W/m2
19:29 0.2 °C -6.8 °C 1017.3 hPa NNW 4.9 km/h 10.1 km/h 59.2% 0.0 mm 0 W/m2
19:34 0.3 °C -6.9 °C 1017.3 hPa NNE 4 km/h 9.3 km/h 58.6% 0.0 mm 0 W/m2
19:39 0.3 °C -6.8 °C 1017.3 hPa NNW 2.7 km/h 10.1 km/h 59% 0.0 mm 0 W/m2
19:44 0.3 °C -6.9 °C 1017.3 hPa North 3.9 km/h 9.7 km/h 58% 0.0 mm 0 W/m2
19:49 0.4 °C -6.9 °C 1017.3 hPa North 4.5 km/h 8.7 km/h 58% 0.0 mm 0 W/m2
19:54 0.5 °C -6.8 °C 1017.3 hPa North 2.8 km/h 10.1 km/h 57.8% 0.0 mm 0 W/m2
19:59 0.6 °C -6.8 °C 1017.3 hPa North 3.7 km/h 9.7 km/h 57.8% 0.0 mm 0 W/m2
20:04 0.6 °C -6.7 °C 1017.3 hPa NNW 2.8 km/h 9 km/h 58% 0.0 mm 0 W/m2
20:09 0.6 °C -6.7 °C 1017.3 hPa North 2.3 km/h 9 km/h 58% 0.0 mm 0 W/m2
20:14 0.6 °C -6.8 °C 1017.3 hPa North 3.1 km/h 9.3 km/h 57.6% 0.0 mm 0 W/m2
Juneau County Weather
Compliments of Weather Underground - 2 mb